Suncook, New Hampshire
Current Conditions -  °F | °C
As of 8:51 AM on Thursday 27 Nov 2014 (Local Time) from KCON Reporting Station
NA  
Wind Chill: 30°   Ceiling: NA
Heat Index: 30°   Visibility: 10mi
Dew Point: 26°   Wind: 3mph
Humidity: 85%   Direction: 300°WNW
Pressure: 29.9"   Gusts: NA
Location:  43.12°N, 71.45°W
Report Text: KCON 271351Z AUTO 30003KT 10SM M01/M03 A2990 RMK AO2 SLP128 T10111033 $
Loading
Personal Weather Stations






























Interactive Weather Map New forecast layout! Learn more

10-Day Weather Forecast

Advertisements
Track Severe Weather on mobile